createdAt,value
2023-05-13T00:00:41.377Z,10.98
2023-05-13T00:03:09.633Z,10.93
2023-05-13T00:05:39.035Z,10.73
2023-05-13T00:08:08.002Z,11.27
2023-05-13T00:10:37.705Z,10.23
2023-05-13T00:13:05.828Z,11.18
2023-05-13T00:15:34.031Z,10.32
2023-05-13T00:18:02.163Z,10.68
2023-05-13T00:20:30.365Z,10.75
2023-05-13T00:22:58.551Z,10.85
2023-05-13T00:25:26.787Z,11.15
2023-05-13T00:27:56.801Z,11.02
2023-05-13T00:30:25.013Z,11.60
2023-05-13T00:32:53.164Z,11.10
2023-05-13T00:35:21.425Z,11.07
2023-05-13T00:37:49.651Z,10.73
2023-05-13T00:40:24.065Z,10.30
2023-05-13T00:42:52.737Z,9.82
2023-05-13T00:45:22.452Z,9.90
2023-05-13T00:47:50.979Z,9.38
2023-05-13T00:50:19.644Z,10.50
2023-05-13T00:52:48.881Z,10.30
2023-05-13T00:55:17.041Z,9.60
2023-05-13T00:57:45.196Z,9.57
2023-05-13T01:00:14.165Z,10.18
2023-05-13T01:02:51.424Z,11.10
2023-05-13T01:05:27.986Z,12.20
2023-05-13T01:08:05.049Z,10.98
2023-05-13T01:10:39.343Z,11.40
2023-05-13T01:13:11.245Z,10.82
2023-05-13T01:15:42.598Z,10.40
2023-05-13T01:18:16.049Z,11.32
2023-05-13T01:20:44.491Z,11.15
2023-05-13T01:23:14.250Z,11.70
2023-05-13T01:25:42.407Z,10.77
2023-05-13T01:28:10.992Z,11.25
2023-05-13T01:30:39.320Z,11.00
2023-05-13T01:33:07.903Z,11.65
2023-05-13T01:35:36.388Z,11.73
2023-05-13T01:38:05.820Z,10.40
2023-05-13T01:40:36.652Z,11.55
2023-05-13T01:43:04.997Z,11.15
2023-05-13T01:45:33.785Z,11.30
2023-05-13T01:48:01.910Z,11.90
2023-05-13T01:50:30.075Z,11.95
2023-05-13T01:52:58.422Z,11.50
2023-05-13T01:55:27.186Z,11.10
2023-05-13T01:57:56.807Z,11.45
2023-05-13T02:00:25.078Z,11.18
2023-05-13T02:02:53.281Z,11.73
2023-05-13T02:05:21.572Z,11.90
2023-05-13T02:07:49.717Z,12.07
2023-05-13T02:10:17.926Z,11.82
2023-05-13T02:12:46.067Z,11.98
2023-05-13T02:15:15.800Z,11.95
2023-05-13T02:17:44.003Z,11.38
2023-05-13T02:20:13.357Z,12.07
2023-05-13T02:22:41.557Z,11.55
2023-05-13T02:25:10.615Z,11.82
2023-05-13T02:27:38.767Z,11.80
2023-05-13T02:30:08.213Z,11.98
2023-05-13T02:32:37.816Z,12.68
2023-05-13T02:35:06.761Z,11.70
2023-05-13T02:37:34.888Z,12.18
2023-05-13T02:40:03.360Z,11.60
2023-05-13T02:42:31.486Z,12.90
2023-05-13T02:45:00.000Z,12.05
2023-05-13T02:47:28.249Z,11.88
2023-05-13T02:49:58.222Z,12.02
2023-05-13T02:52:26.471Z,11.85
2023-05-13T02:54:54.654Z,12.52
2023-05-13T02:57:22.775Z,12.27
2023-05-13T02:59:50.910Z,11.23
2023-05-13T03:02:19.132Z,12.40
2023-05-13T03:04:47.386Z,11.30
2023-05-13T03:07:16.967Z,11.73
2023-05-13T03:09:45.119Z,12.73
2023-05-13T03:12:13.314Z,11.95
2023-05-13T03:14:42.904Z,12.32
2023-05-13T03:17:11.281Z,12.20
2023-05-13T03:19:40.208Z,12.25
2023-05-13T03:22:08.380Z,11.80
2023-05-13T03:24:37.904Z,12.85
2023-05-13T03:27:06.412Z,12.40
2023-05-13T03:29:34.524Z,12.85
2023-05-13T03:32:02.722Z,12.00
2023-05-13T03:34:30.828Z,12.88
2023-05-13T03:36:58.953Z,12.95
2023-05-13T03:39:27.107Z,12.38
2023-05-13T03:41:56.670Z,12.55
2023-05-13T03:44:24.909Z,13.88
2023-05-13T03:46:53.109Z,13.23
2023-05-13T03:49:21.295Z,13.60
2023-05-13T03:51:49.481Z,14.18
2023-05-13T03:54:17.620Z,14.93
2023-05-13T03:56:45.906Z,14.80
2023-05-13T03:59:15.409Z,14.65
2023-05-13T04:01:43.578Z,14.02
2023-05-13T04:04:11.722Z,13.98
2023-05-13T04:06:39.837Z,13.65
2023-05-13T04:09:07.990Z,12.20
2023-05-13T04:11:36.139Z,12.88
2023-05-13T04:14:04.278Z,12.45
2023-05-13T04:16:33.858Z,13.63
2023-05-13T04:19:02.099Z,11.70
2023-05-13T04:21:31.411Z,11.63
2023-05-13T04:23:59.646Z,12.85
2023-05-13T04:26:27.896Z,11.73
2023-05-13T04:28:56.085Z,12.55
2023-05-13T04:31:24.254Z,11.02
2023-05-13T04:33:53.795Z,11.98
2023-05-13T04:36:21.902Z,12.15
2023-05-13T04:38:50.076Z,13.00
2023-05-13T04:41:18.215Z,11.45
2023-05-13T04:43:46.363Z,12.20
2023-05-13T04:46:14.556Z,11.13
2023-05-13T04:48:42.978Z,12.50
2023-05-13T04:51:13.029Z,12.18
2023-05-13T04:53:41.408Z,11.27
2023-05-13T04:56:10.733Z,11.73
2023-05-13T04:58:38.866Z,12.07
2023-05-13T05:01:07.281Z,12.82
2023-05-13T05:03:35.549Z,12.27
2023-05-13T05:06:03.741Z,12.15
2023-05-13T05:08:33.320Z,11.18
2023-05-13T05:11:01.862Z,11.77
2023-05-13T05:13:30.049Z,11.48
2023-05-13T05:15:58.153Z,12.07
2023-05-13T05:18:26.528Z,12.60
2023-05-13T05:20:54.772Z,12.77
2023-05-13T05:23:22.921Z,12.27
2023-05-13T05:26:04.125Z,12.20
2023-05-13T05:28:36.790Z,11.55
2023-05-13T05:31:05.277Z,11.55
2023-05-13T05:33:33.511Z,11.48
2023-05-13T05:36:01.670Z,12.23
2023-05-13T05:38:29.837Z,11.10
2023-05-13T05:40:59.409Z,11.60
2023-05-13T05:43:27.617Z,11.02
2023-05-13T05:45:55.858Z,11.30
2023-05-13T05:48:24.073Z,11.93
2023-05-13T05:50:52.325Z,12.05
2023-05-13T05:53:20.542Z,11.07
2023-05-13T05:55:49.680Z,11.73
2023-05-13T05:58:20.704Z,10.90
2023-05-13T06:00:48.904Z,10.57
2023-05-13T06:03:17.274Z,11.18
2023-05-13T06:05:45.691Z,11.40
2023-05-13T06:08:13.853Z,11.38
2023-05-13T06:10:42.073Z,12.25
2023-05-13T06:13:10.204Z,12.10
2023-05-13T06:15:40.134Z,11.90
2023-05-13T06:18:08.365Z,10.82
2023-05-13T06:20:36.529Z,10.45
2023-05-13T06:23:04.669Z,10.15
2023-05-13T06:25:32.907Z,10.18
2023-05-13T06:28:03.007Z,10.00
2023-05-13T06:30:31.462Z,9.48
2023-05-13T06:33:02.447Z,10.45
2023-05-13T06:35:30.993Z,9.70
2023-05-13T06:37:59.146Z,9.10
2023-05-13T06:40:27.387Z,9.50
2023-05-13T06:42:55.826Z,9.02
2023-05-13T06:45:25.961Z,9.48
2023-05-13T06:47:54.592Z,8.90
2023-05-13T06:50:24.427Z,9.43
2023-05-13T06:52:52.707Z,9.07
2023-05-13T06:55:21.696Z,9.55
2023-05-13T06:57:49.885Z,8.23
2023-05-13T07:00:19.232Z,8.10
2023-05-13T07:02:47.570Z,8.05
2023-05-13T07:05:15.855Z,6.93
2023-05-13T07:07:45.974Z,7.03
2023-05-13T07:10:14.139Z,6.78
2023-05-13T07:12:42.365Z,6.93
2023-05-13T07:15:11.200Z,7.03
2023-05-13T07:17:39.444Z,6.80
2023-05-13T07:20:09.112Z,6.57
2023-05-13T07:22:37.232Z,6.30
2023-05-13T07:25:07.627Z,6.38
2023-05-13T07:27:35.834Z,6.32
2023-05-13T07:30:04.050Z,6.32
2023-05-13T07:32:32.257Z,6.55
2023-05-13T07:35:00.431Z,6.43
2023-05-13T07:37:28.566Z,6.25
2023-05-13T07:39:56.684Z,6.28
2023-05-13T07:42:27.294Z,6.05
2023-05-13T07:44:55.669Z,6.43
2023-05-13T07:47:23.929Z,5.25
2023-05-13T07:49:52.151Z,6.03
2023-05-13T07:52:20.306Z,5.97
2023-05-13T07:54:48.427Z,6.05
2023-05-13T07:57:16.620Z,5.38
2023-05-13T07:59:46.211Z,5.38
2023-05-13T08:02:14.403Z,5.60
2023-05-13T08:04:42.614Z,5.45
2023-05-13T08:07:11.446Z,5.22
2023-05-13T08:09:39.643Z,5.35
2023-05-13T08:12:08.298Z,4.88
2023-05-13T08:14:37.052Z,5.40
2023-05-13T08:17:08.155Z,5.03
2023-05-13T08:19:37.600Z,4.93
2023-05-13T08:22:05.982Z,5.10
2023-05-13T08:24:34.237Z,4.78
2023-05-13T08:27:02.697Z,4.40
2023-05-13T08:29:30.909Z,5.45
2023-05-13T08:31:59.188Z,4.35
2023-05-13T08:34:28.759Z,4.40
2023-05-13T08:36:56.919Z,4.85
2023-05-13T08:39:25.060Z,4.30
2023-05-13T08:41:56.544Z,4.32
2023-05-13T08:44:29.056Z,4.30
2023-05-13T08:47:06.318Z,4.38
2023-05-13T08:49:36.395Z,3.33
2023-05-13T08:52:04.971Z,3.03
2023-05-13T08:54:33.546Z,3.08
2023-05-13T08:57:01.745Z,3.42
2023-05-13T08:59:29.947Z,3.28
2023-05-13T09:02:00.239Z,3.30
2023-05-13T09:04:28.576Z,3.15
2023-05-13T09:06:58.495Z,3.15
2023-05-13T09:09:26.679Z,3.08
2023-05-13T09:11:54.783Z,3.53
2023-05-13T09:14:22.926Z,3.50
2023-05-13T09:16:51.112Z,3.63
2023-05-13T09:19:19.404Z,4.00
2023-05-13T09:21:47.704Z,3.33
2023-05-13T09:24:21.341Z,3.15
2023-05-13T09:26:51.287Z,3.53
2023-05-13T09:29:24.456Z,3.10
2023-05-13T09:31:54.780Z,3.22
2023-05-13T09:34:27.645Z,3.53
2023-05-13T09:37:04.516Z,3.28
2023-05-13T09:39:35.753Z,3.55
2023-05-13T09:42:05.367Z,3.50
2023-05-13T09:44:34.370Z,4.18
2023-05-13T09:47:03.546Z,3.67
2023-05-13T09:49:33.495Z,3.80
2023-05-13T09:52:01.644Z,4.00
2023-05-13T09:54:37.290Z,3.60
2023-05-13T09:57:06.098Z,3.85
2023-05-13T09:59:34.657Z,3.33
2023-05-13T10:02:06.651Z,3.45
2023-05-13T10:04:35.429Z,3.83
2023-05-13T10:07:05.341Z,3.63
2023-05-13T10:09:38.412Z,3.13
2023-05-13T10:12:09.685Z,3.35
2023-05-13T10:14:39.237Z,3.10
2023-05-13T10:17:09.290Z,3.15
2023-05-13T10:19:38.223Z,3.60
2023-05-13T10:22:07.587Z,3.40
2023-05-13T10:24:39.017Z,3.03
2023-05-13T10:27:08.403Z,2.70
2023-05-13T10:29:38.908Z,2.47
2023-05-13T10:32:08.933Z,2.45
2023-05-13T10:34:39.038Z,2.40
2023-05-13T10:37:38.667Z,2.70
2023-05-13T10:40:26.375Z,3.05
2023-05-13T10:43:11.238Z,2.47
2023-05-13T10:45:39.448Z,2.33
2023-05-13T10:48:08.702Z,2.45
2023-05-13T10:50:39.275Z,2.38
2023-05-13T10:53:18.939Z,2.22
2023-05-13T10:55:48.482Z,2.22
2023-05-13T10:58:18.078Z,2.55
2023-05-13T11:00:46.796Z,2.40
2023-05-13T11:03:17.128Z,2.25
2023-05-13T11:05:48.083Z,2.78
2023-05-13T11:08:40.670Z,2.65
2023-05-13T11:11:28.704Z,2.58
2023-05-13T11:14:04.728Z,2.20
2023-05-13T11:16:32.953Z,2.33
2023-05-13T11:19:03.217Z,2.40
2023-05-13T11:21:32.974Z,2.90
2023-05-13T11:24:05.565Z,2.45
2023-05-13T11:26:47.348Z,2.65
2023-05-13T11:29:16.174Z,2.38
2023-05-13T11:31:47.347Z,2.40
2023-05-13T11:34:17.263Z,2.50
2023-05-13T11:36:47.371Z,2.25
2023-05-13T11:39:18.090Z,2.55
2023-05-13T11:41:49.230Z,2.33
2023-05-13T11:44:18.812Z,2.17
2023-05-13T11:46:55.321Z,2.42
2023-05-13T11:49:38.810Z,2.53
2023-05-13T11:52:08.978Z,2.42
2023-05-13T11:54:45.165Z,3.00
2023-05-13T11:57:20.310Z,2.22
2023-05-13T12:00:01.836Z,2.50
2023-05-13T12:02:31.965Z,2.50
2023-05-13T12:05:02.396Z,2.45
2023-05-13T12:07:30.641Z,2.45
2023-05-13T12:09:59.947Z,2.35
2023-05-13T12:12:30.960Z,2.30
2023-05-13T12:15:01.420Z,2.13
2023-05-13T12:17:29.844Z,2.38
2023-05-13T12:20:12.137Z,2.47
2023-05-13T12:22:56.895Z,2.20
2023-05-13T12:25:38.913Z,2.30
2023-05-13T12:28:13.820Z,3.00
2023-05-13T12:30:43.166Z,2.00
2023-05-13T12:33:15.912Z,2.15
2023-05-13T12:35:44.635Z,2.15
2023-05-13T12:38:18.074Z,2.30
2023-05-13T12:40:47.089Z,2.25
2023-05-13T12:43:17.936Z,2.40
2023-05-13T12:45:48.054Z,2.03
2023-05-13T12:48:16.226Z,2.42
2023-05-13T12:50:44.382Z,2.40
2023-05-13T12:53:12.622Z,2.58
2023-05-13T12:55:40.854Z,2.70
2023-05-13T12:58:11.936Z,2.00
2023-05-13T13:00:41.485Z,2.03
2023-05-13T13:03:09.905Z,1.95
2023-05-13T13:05:38.189Z,2.13
2023-05-13T13:08:06.791Z,1.77
2023-05-13T13:10:35.131Z,1.75
2023-05-13T13:13:03.335Z,1.70
2023-05-13T13:15:31.514Z,1.92
2023-05-13T13:18:01.124Z,1.85
2023-05-13T13:20:29.346Z,1.90
2023-05-13T13:22:59.506Z,2.25
2023-05-13T13:25:28.846Z,2.03
2023-05-13T13:27:57.000Z,2.13
2023-05-13T13:30:25.139Z,1.80
2023-05-13T13:32:53.339Z,1.88
2023-05-13T13:35:23.247Z,1.90
2023-05-13T13:37:51.561Z,2.10
2023-05-13T13:40:19.767Z,1.75
2023-05-13T13:42:48.169Z,1.90
2023-05-13T13:45:16.321Z,1.73
2023-05-13T13:47:45.060Z,1.88
2023-05-13T13:50:13.318Z,1.98
2023-05-13T13:52:42.853Z,1.90
2023-05-13T13:55:12.184Z,1.70
2023-05-13T13:57:40.346Z,1.90
2023-05-13T14:00:10.107Z,1.98
2023-05-13T14:02:38.436Z,1.40
2023-05-13T14:05:07.657Z,1.90
2023-05-13T14:07:36.454Z,1.90
2023-05-13T14:10:07.014Z,1.80
2023-05-13T14:12:35.865Z,1.63
2023-05-13T14:15:04.551Z,1.42
2023-05-13T14:17:33.169Z,1.42
2023-05-13T14:20:01.432Z,1.70
2023-05-13T14:22:29.612Z,1.58
2023-05-13T14:24:57.772Z,2.05
2023-05-13T14:27:27.282Z,3.65
2023-05-13T14:29:55.432Z,1.80
2023-05-13T14:32:23.751Z,2.95
2023-05-13T14:34:52.002Z,2.80
2023-05-13T14:37:20.338Z,1.80
2023-05-13T14:39:50.080Z,1.80
2023-05-13T14:42:19.353Z,1.58
2023-05-13T14:44:48.883Z,1.80
2023-05-13T14:47:17.069Z,2.15
2023-05-13T14:49:45.308Z,5.03
2023-05-13T14:52:13.492Z,2.80
2023-05-13T14:54:41.619Z,1.98
2023-05-13T14:57:09.863Z,2.30
2023-05-13T14:59:38.063Z,2.20
2023-05-13T15:02:07.755Z,2.13
2023-05-13T15:04:35.918Z,1.73
2023-05-13T15:07:04.568Z,1.92
2023-05-13T15:09:32.704Z,1.50
2023-05-13T15:12:00.853Z,2.08
2023-05-13T15:14:29.010Z,1.55
2023-05-13T15:16:57.391Z,1.55
2023-05-13T15:19:27.042Z,1.77
2023-05-13T15:21:55.176Z,1.65
2023-05-13T15:24:23.284Z,1.75
2023-05-13T15:26:51.435Z,1.50
2023-05-13T15:29:19.582Z,1.60
2023-05-13T15:31:50.634Z,2.10
2023-05-13T15:34:18.780Z,1.77
2023-05-13T15:36:48.341Z,1.70
2023-05-13T15:39:17.186Z,1.70
2023-05-13T15:41:45.347Z,1.55
2023-05-13T15:44:13.482Z,1.60
2023-05-13T15:46:42.702Z,1.70
2023-05-13T15:49:10.925Z,1.92
2023-05-13T15:51:39.073Z,1.60
2023-05-13T15:54:08.697Z,1.40
2023-05-13T15:56:36.894Z,1.70
2023-05-13T15:59:05.187Z,1.50
2023-05-13T16:01:33.376Z,1.67
2023-05-13T16:04:01.632Z,2.00
2023-05-13T16:06:29.824Z,1.65
2023-05-13T16:08:57.959Z,1.50
2023-05-13T16:11:27.507Z,1.60
2023-05-13T16:13:55.850Z,1.52
2023-05-13T16:16:24.605Z,1.65
2023-05-13T16:18:52.849Z,1.80
2023-05-13T16:21:21.342Z,2.03
2023-05-13T16:23:50.929Z,2.20
2023-05-13T16:26:19.292Z,1.65
2023-05-13T16:28:48.801Z,1.90
2023-05-13T16:31:16.967Z,1.45
2023-05-13T16:33:45.165Z,1.38
2023-05-13T16:36:13.330Z,1.90
2023-05-13T16:38:42.300Z,1.88
2023-05-13T16:41:10.623Z,1.55
2023-05-13T16:43:38.862Z,1.83
2023-05-13T16:46:08.448Z,1.63
2023-05-13T16:48:36.802Z,1.90
2023-05-13T16:51:05.306Z,2.58
2023-05-13T16:53:34.270Z,1.70
2023-05-13T16:56:02.505Z,2.45
2023-05-13T16:58:30.721Z,2.30
2023-05-13T17:00:59.688Z,2.30
2023-05-13T17:03:29.376Z,2.38
2023-05-13T17:05:57.667Z,2.38
2023-05-13T17:08:25.902Z,2.33
2023-05-13T17:10:54.147Z,2.30
2023-05-13T17:13:22.305Z,2.30
2023-05-13T17:15:50.532Z,2.20
2023-05-13T17:18:18.667Z,2.20
2023-05-13T17:20:48.213Z,2.20
2023-05-13T17:23:17.327Z,2.33
2023-05-13T17:25:46.005Z,2.50
2023-05-13T17:28:14.247Z,4.63
2023-05-13T17:30:42.411Z,2.70
2023-05-13T17:33:10.602Z,2.78
2023-05-13T17:35:38.897Z,2.53
2023-05-13T17:38:08.452Z,2.38
2023-05-13T17:40:36.631Z,2.40
2023-05-13T17:43:04.765Z,2.40
2023-05-13T17:45:33.097Z,2.45
2023-05-13T17:48:01.402Z,2.58
2023-05-13T17:50:30.499Z,2.47
2023-05-13T17:53:01.502Z,2.70
2023-05-13T17:55:31.109Z,2.90
2023-05-13T17:57:59.889Z,3.40
2023-05-13T18:00:28.563Z,3.05
2023-05-13T18:02:56.759Z,2.75
2023-05-13T18:05:24.988Z,3.10
2023-05-13T18:07:53.137Z,2.92
2023-05-13T18:10:21.629Z,3.08
2023-05-13T18:12:52.070Z,3.38
2023-05-13T18:15:20.398Z,3.38
2023-05-13T18:17:48.623Z,3.38
2023-05-13T18:20:17.118Z,3.75
2023-05-13T18:22:45.286Z,4.65
2023-05-13T18:25:13.484Z,4.63
2023-05-13T18:27:41.814Z,4.13
2023-05-13T18:30:12.843Z,4.35
2023-05-13T18:32:41.017Z,4.45
2023-05-13T18:35:09.814Z,4.30
2023-05-13T18:37:38.650Z,3.72
2023-05-13T18:40:07.904Z,4.20
2023-05-13T18:42:36.384Z,3.97
2023-05-13T18:45:04.846Z,4.60
2023-05-13T18:47:34.730Z,4.50
2023-05-13T18:50:03.103Z,4.50
2023-05-13T18:52:31.234Z,4.78
2023-05-13T18:54:59.410Z,4.55
2023-05-13T18:57:27.637Z,5.53
2023-05-13T18:59:56.972Z,4.63
2023-05-13T19:02:25.435Z,4.65
2023-05-13T19:04:55.259Z,4.88
2023-05-13T19:07:23.404Z,5.45
2023-05-13T19:09:51.571Z,5.50
2023-05-13T19:12:19.694Z,5.20
2023-05-13T19:14:47.872Z,5.43
2023-05-13T19:17:16.399Z,4.95
2023-05-13T19:19:44.601Z,4.70
2023-05-13T19:22:14.302Z,5.53
2023-05-13T19:24:42.752Z,7.00
2023-05-13T19:27:11.230Z,6.90
2023-05-13T19:29:39.376Z,7.22
2023-05-13T19:32:07.923Z,6.80
2023-05-13T19:34:36.086Z,7.03
2023-05-13T19:37:04.936Z,7.10
2023-05-13T19:39:34.430Z,8.30
2023-05-13T19:42:02.564Z,8.32
2023-05-13T19:44:31.895Z,8.98
2023-05-13T19:47:00.378Z,7.88
2023-05-13T19:49:28.616Z,7.10
2023-05-13T19:51:57.452Z,6.85
2023-05-13T19:54:25.653Z,7.53
2023-05-13T19:56:56.953Z,7.20
2023-05-13T19:59:25.204Z,7.35
2023-05-13T20:01:53.431Z,7.22
2023-05-13T20:04:24.068Z,7.65
2023-05-13T20:06:53.185Z,7.25
2023-05-13T20:09:21.487Z,7.07
2023-05-13T20:11:49.878Z,8.05
2023-05-13T20:14:23.232Z,7.80
2023-05-13T20:17:02.410Z,7.88
2023-05-13T20:19:30.613Z,8.60
2023-05-13T20:21:58.902Z,11.07
2023-05-13T20:24:27.217Z,9.50
2023-05-13T20:26:55.619Z,9.48
2023-05-13T20:29:25.178Z,9.13
2023-05-13T20:31:53.603Z,10.02
2023-05-13T20:34:21.769Z,10.20
2023-05-13T20:36:49.883Z,10.55
2023-05-13T20:39:18.377Z,9.13
2023-05-13T20:41:48.382Z,9.77
2023-05-13T20:44:17.239Z,9.55
2023-05-13T20:46:47.035Z,9.93
2023-05-13T20:49:15.232Z,10.15
2023-05-13T20:51:44.987Z,10.23
2023-05-13T20:54:13.842Z,9.88
2023-05-13T20:56:42.414Z,10.60
2023-05-13T20:59:11.044Z,11.10
2023-05-13T21:01:39.343Z,11.15
2023-05-13T21:04:10.060Z,11.20
2023-05-13T21:06:38.632Z,11.88
2023-05-13T21:09:07.021Z,13.95
2023-05-13T21:11:35.759Z,16.15
2023-05-13T21:14:04.063Z,14.88
2023-05-13T21:16:32.389Z,13.43
2023-05-13T21:19:00.686Z,12.98
2023-05-13T21:21:31.986Z,13.27
2023-05-13T21:24:00.296Z,13.65
2023-05-13T21:26:28.775Z,13.68
2023-05-13T21:28:57.013Z,13.57
2023-05-13T21:31:25.804Z,14.23
2023-05-13T21:33:54.505Z,14.52
2023-05-13T21:36:22.817Z,16.30
2023-05-13T21:38:54.395Z,18.80
2023-05-13T21:41:23.068Z,18.23
2023-05-13T21:43:51.784Z,16.90
2023-05-13T21:46:19.945Z,16.83
2023-05-13T21:48:49.028Z,17.38
2023-05-13T21:51:17.232Z,17.30
2023-05-13T21:53:45.369Z,18.90
2023-05-13T21:56:14.977Z,21.73
2023-05-13T21:58:43.548Z,19.60
2023-05-13T22:01:11.974Z,21.23
2023-05-13T22:03:40.207Z,23.67
2023-05-13T22:06:09.224Z,18.77
2023-05-13T22:08:37.436Z,19.38
2023-05-13T22:11:05.740Z,18.67
2023-05-13T22:13:35.271Z,17.23
2023-05-13T22:16:03.446Z,17.05
2023-05-13T22:18:31.802Z,17.65
2023-05-13T22:21:00.872Z,17.48
2023-05-13T22:23:29.068Z,20.20
2023-05-13T22:25:57.233Z,19.10
2023-05-13T22:28:25.503Z,17.83
2023-05-13T22:30:56.940Z,17.20
2023-05-13T22:33:25.147Z,17.73
2023-05-13T22:35:53.492Z,17.10
2023-05-13T22:38:21.636Z,19.55
2023-05-13T22:40:49.751Z,17.60
2023-05-13T22:43:17.889Z,17.67
2023-05-13T22:45:46.038Z,17.55
2023-05-13T22:48:15.955Z,19.55
2023-05-13T22:50:44.077Z,18.13
2023-05-13T22:53:12.494Z,16.45
2023-05-13T22:55:40.658Z,16.83
2023-05-13T22:58:09.093Z,15.15
2023-05-13T23:00:37.243Z,15.90
2023-05-13T23:03:05.696Z,15.52
2023-05-13T23:05:35.244Z,14.90
2023-05-13T23:08:03.384Z,15.07
2023-05-13T23:10:32.982Z,15.45
2023-05-13T23:13:03.667Z,15.63
2023-05-13T23:15:31.780Z,15.70
2023-05-13T23:17:59.918Z,14.77
2023-05-13T23:20:28.155Z,15.65
2023-05-13T23:22:57.672Z,15.75
2023-05-13T23:25:25.792Z,15.23
2023-05-13T23:27:53.943Z,17.35
2023-05-13T23:30:22.461Z,15.40
2023-05-13T23:32:50.794Z,14.25
2023-05-13T23:35:19.227Z,15.93
2023-05-13T23:37:47.385Z,15.48
2023-05-13T23:40:17.171Z,15.13
2023-05-13T23:42:45.321Z,15.85
2023-05-13T23:45:13.556Z,15.90
2023-05-13T23:47:41.785Z,14.32
2023-05-13T23:50:10.986Z,14.95
2023-05-13T23:52:39.187Z,14.65
2023-05-13T23:55:08.434Z,14.65
2023-05-13T23:57:38.300Z,14.93
